Latest Weather Observations for Thevenard

IDS60801

Issued at 11:01 am CST Monday 21 May 2018 (issued every 10 minutes, with the page automatically refreshed every 10 minutes)

About weather observations | Map of weather stations | Latest weather observations for SA | Other Formats
Station Details ID: 018200 Name: THEVENARD WIND Lat: -32.18 Lon: 133.63 Height: 8.54 m
Data from the previous 72 hours. | See also: Recent months for locations in South Australia
Date/Time
CST
Temp
°C
App
Temp
°C
Dew
Point
°C
Rel
Hum
%
Delta-T
°C
Wind Press
QNH
hPa
Press
MSL
hPa
Rain since
9am
mm
Dir  Spd
km/h
Gust
km/h
Spd
kts
Gust
kts
21/11:00am - - - - - WNW 2 4 1 2 - - -
21/10:30am - - - - - N 2 4 1 2 - - -
21/10:00am - - - - - NNE 6 7 3 4 - - -
21/09:30am - - - - - NNE 11 13 6 7 - - -
21/09:00am - - - - - NNE 11 13 6 7 - - -
21/08:30am - - - - - NE 13 17 7 9 - - -
21/08:00am - - - - - NE 13 15 7 8 - - -
21/07:30am - - - - - NE 15 17 8 9 - - -
21/07:00am - - - - - NE 11 15 6 8 - - -
21/06:30am - - - - - NE 11 15 6 8 - - -
21/06:00am - - - - - NE 11 15 6 8 - - -
21/05:30am - - - - - NE 9 11 5 6 - - -
21/05:00am - - - - - NE 9 13 5 7 - - -
21/04:30am - - - - - ENE 9 11 5 6 - - -
21/04:00am - - - - - NE 9 11 5 6 - - -
21/03:30am - - - - - E 11 13 6 7 - - -
21/03:00am - - - - - ENE 9 11 5 6 - - -
21/02:30am - - - - - ENE 7 9 4 5 - - -
21/02:00am - - - - - ENE 9 11 5 6 - - -
21/01:30am - - - - - NE 9 11 5 6 - - -
21/01:00am - - - - - ENE 7 9 4 5 - - -
21/12:30am - - - - - ENE 7 9 4 5 - - -
21/12:00am - - - - - ENE 9 13 5 7 - - -
 
Date/Time
CST
Temp
°C
App
Temp
°C
Dew
Point
°C
Rel
Hum
%
Delta-T
°C
Wind Press
QNH
hPa
Press
MSL
hPa
Rain since
9am
mm
Dir  Spd
km/h
Gust
km/h
Spd
kts
Gust
kts
20/11:30pm - - - - - ENE 13 15 7 8 - - -
20/11:00pm - - - - - ENE 9 11 5 6 - - -
20/10:30pm - - - - - E 11 13 6 7 - - -
20/10:00pm - - - - - E 13 19 7 10 - - -
20/09:30pm - - - - - ESE 19 24 10 13 - - -
20/09:00pm - - - - - SE 22 26 12 14 - - -
20/08:30pm - - - - - SE 24 30 13 16 - - -
20/08:00pm - - - - - SE 24 32 13 17 - - -
20/07:30pm - - - - - SSE 28 33 15 18 - - -
20/07:00pm - - - - - SSE 26 33 14 18 - - -
20/06:30pm - - - - - SSE 24 28 13 15 - - -
20/06:00pm - - - - - SSE 24 26 13 14 - - -
20/05:30pm - - - - - SSE 26 30 14 16 - - -
20/05:00pm - - - - - SSE 24 30 13 16 - - -
20/04:30pm - - - - - SSE 26 32 14 17 - - -
20/04:00pm - - - - - SSE 19 22 10 12 - - -
20/03:30pm - - - - - SSE 15 17 8 9 - - -
20/03:00pm - - - - - SSE 11 15 6 8 - - -
20/02:30pm - - - - - SSE 9 11 5 6 - - -
20/02:00pm - - - - - SE 11 13 6 7 - - -
20/01:30pm - - - - - SE 13 15 7 8 - - -
20/01:00pm - - - - - SSE 11 13 6 7 - - -
20/12:30pm - - - - - SE 11 13 6 7 - - -
20/12:00pm - - - - - SE 13 15 7 8 - - -
20/11:30am - - - - - ESE 13 17 7 9 - - -
20/11:00am - - - - - ESE 11 17 6 9 - - -
20/10:30am - - - - - E 15 17 8 9 - - -
20/10:00am - - - - - E 13 19 7 10 - - -
20/09:30am - - - - - E 13 15 7 8 - - -
20/09:00am - - - - - E 13 17 7 9 - - -
20/08:30am - - - - - E 17 20 9 11 - - -
20/08:00am - - - - - E 13 15 7 8 - - -
20/07:30am - - - - - ESE 13 19 7 10 - - -
20/07:00am - - - - - E 17 22 9 12 - - -
20/06:30am - - - - - E 17 20 9 11 - - -
20/06:00am - - - - - E 19 24 10 13 - - -
20/05:30am - - - - - E 13 15 7 8 - - -
20/05:00am - - - - - E 13 15 7 8 - - -
20/04:30am - - - - - E 9 11 5 6 - - -
20/04:00am - - - - - ESE 7 11 4 6 - - -
20/03:30am - - - - - ESE 9 13 5 7 - - -
20/03:00am - - - - - E 9 9 5 5 - - -
20/02:30am - - - - - E 9 11 5 6 - - -
20/02:00am - - - - - ESE 11 15 6 8 - - -
20/01:30am - - - - - ESE 13 19 7 10 - - -
20/01:00am - - - - - ESE 9 11 5 6 - - -
20/12:30am - - - - - ESE 9 11 5 6 - - -
20/12:00am - - - - - SSE 9 13 5 7 - - -
 
Date/Time
CST
Temp
°C
App
Temp
°C
Dew
Point
°C
Rel
Hum
%
Delta-T
°C
Wind Press
QNH
hPa
Press
MSL
hPa
Rain since
9am
mm
Dir  Spd
km/h
Gust
km/h
Spd
kts
Gust
kts
19/11:30pm - - - - - S 13 17 7 9 - - -
19/11:00pm - - - - - SSE 20 26 11 14 - - -
19/10:30pm - - - - - SE 15 19 8 10 - - -
19/10:00pm - - - - - SE 13 17 7 9 - - -
19/09:30pm - - - - - SE 17 20 9 11 - - -
19/09:00pm - - - - - SE 13 19 7 10 - - -
19/08:30pm - - - - - SSE 24 26 13 14 - - -
19/08:00pm - - - - - SE 19 22 10 12 - - -
19/07:30pm - - - - - SSE 17 22 9 12 - - -
19/07:00pm - - - - - SSE 19 22 10 12 - - -
19/06:30pm - - - - - SSE 7 9 4 5 - - -
19/06:00pm - - - - - SSE 7 9 4 5 - - -
19/05:30pm - - - - - SW 6 7 3 4 - - -
19/05:00pm - - - - - SSW 7 9 4 5 - - -
19/04:30pm - - - - - SW 4 6 2 3 - - -
19/04:00pm - - - - - S 2 2 1 1 - - -
19/03:30pm - - - - - ESE 4 7 2 4 - - -
19/03:00pm - - - - - SE 6 7 3 4 - - -
19/02:30pm - - - - - SSW 13 15 7 8 - - -
19/02:00pm - - - - - WSW 4 6 2 3 - - -
19/01:30pm - - - - - WNW 6 7 3 4 - - -
19/01:00pm - - - - - NNW 6 7 3 4 - - -
19/12:30pm - - - - - NNE 11 11 6 6 - - -
19/12:00pm - - - - - N 9 11 5 6 - - -
19/11:30am - - - - - N 6 9 3 5 - - -
19/11:00am - - - - - WNW 4 6 2 3 - - -
19/10:30am - - - - - NW 9 11 5 6 - - -
19/10:00am - - - - - WNW 9 11 5 6 - - -
19/09:30am - - - - - SW 7 9 4 5 - - -
19/09:00am - - - - - WSW 7 9 4 5 - - -
19/08:30am - - - - - WNW 11 13 6 7 - - -
19/08:00am - - - - - NW 9 11 5 6 - - -
19/07:30am - - - - - NNW 11 13 6 7 - - -
19/07:00am - - - - - W 9 11 5 6 - - -
19/06:30am - - - - - WNW 11 13 6 7 - - -
19/06:00am - - - - - WSW 9 13 5 7 - - -
19/05:30am - - - - - WSW 15 17 8 9 - - -
19/05:00am - - - - - W 17 19 9 10 - - -
19/04:30am - - - - - W 13 15 7 8 - - -
19/04:00am - - - - - W 11 15 6 8 - - -
19/03:30am - - - - - W 11 13 6 7 - - -
19/03:00am - - - - - W 9 11 5 6 - - -
19/02:30am - - - - - WNW 9 9 5 5 - - -
19/02:00am - - - - - W 11 11 6 6 - - -
19/01:30am - - - - - W 7 11 4 6 - - -
19/01:00am - - - - - S 4 6 2 3 - - -
19/12:30am - - - - - SSW 4 4 2 2 - - -
19/12:00am - - - - - S 11 15 6 8 - - -
 
Date/Time
CST
Temp
°C
App
Temp
°C
Dew
Point
°C
Rel
Hum
%
Delta-T
°C
Wind Press
QNH
hPa
Press
MSL
hPa
Rain since
9am
mm
Dir  Spd
km/h
Gust
km/h
Spd
kts
Gust
kts
18/11:30pm - - - - - SSW 9 11 5 6 - - -
18/11:00pm - - - - - SSW 17 22 9 12 - - -
18/10:30pm - - - - - SSE 15 20 8 11 - - -
18/10:00pm - - - - - SSW 6 7 3 4 - - -
18/09:30pm - - - - - S 9 13 5 7 - - -
18/09:00pm - - - - - SW 7 11 4 6 - - -
18/08:30pm - - - - - SSW 2 4 1 2 - - -
18/08:00pm - - - - - S 6 7 3 4 - - -
18/07:30pm - - - - - S 11 15 6 8 - - -
18/07:00pm - - - - - SSW 13 15 7 8 - - -
18/06:30pm - - - - - SSW 15 19 8 10 - - -
18/06:00pm - - - - - SSW 17 19 9 10 - - -
18/05:30pm - - - - - S 19 22 10 12 - - -
18/05:00pm - - - - - SSE 17 22 9 12 - - -
18/04:30pm - - - - - SW 15 19 8 10 - - -
18/04:00pm - - - - - SW 17 20 9 11 - - -
18/03:30pm - - - - - SW 19 22 10 12 - - -
18/03:00pm - - - - - SW 17 19 9 10 - - -
18/02:30pm - - - - - SW 13 17 7 9 - - -
18/02:00pm - - - - - SW 17 19 9 10 - - -
18/01:30pm - - - - - WSW 13 15 7 8 - - -
18/01:00pm - - - - - WSW 13 17 7 9 - - -
18/12:30pm - - - - - WSW 15 17 8 9 - - -
18/12:00pm - - - - - W 13 15 7 8 - - -
18/11:30am - - - - - WNW 13 15 7 8 - - -

Other Formats:

Comma delimited format used in spreadsheet applications
http://www.bom.gov.au/fwo/IDS60801/IDS60801.95653.axf

JavaScript Object Notation format (JSON) in row-major order
http://www.bom.gov.au/fwo/IDS60801/IDS60801.95653.json